Terminal Aerodrome Forecast
Issued by NWS Burlington, VT

Home | Current Version | Previous Version | Text Only | Print | Product List | Glossary On
Versions: 1 2 3 4 5 6 7 8 9 10 11 12 13 14 15 16 17 18
000
FTUS41 KBTV 302338
TAFBTV
TAF
KBTV 302338Z 0100/0124 15006KT P6SM -SHRA SCT020 OVC050
     FM010200 16006KT P6SM VCSH SCT030 BKN040
     FM010400 VRB05KT P6SM OVC040
     FM010900 17010KT P6SM BKN035
     FM011600 18013G18KT 6SM -SHRA BR SCT035 OVC045=

USA.gov is the U.S. government's official web portal to all federal, state and local government web resources and services.